Time,TemperatureF,DewpointF,PressureIn,WindDirection,WindDirectionDegrees,WindSpeedMPH,WindSpeedGustMPH,Humidity,HourlyPrecipIn,Conditions,Clouds,dailyrainin,SoftwareType,DateUTC
2013-04-25 00:08:00,63.5,60.0,30.09,SSW,205,0.0,8.0,89,0.00,,,0.00,weatherlink.com 1.10,2013-04-25 04:08:00,
2013-04-25 00:24:00,63.5,60.0,30.09,SSW,197,0.0,7.0,89,0.00,,,0.00,weatherlink.com 1.10,2013-04-25 04:24:00,
2013-04-25 00:39:00,63.6,60.0,30.08,South,171,0.0,6.0,89,0.00,,,0.00,weatherlink.com 1.10,2013-04-25 04:39:00,
2013-04-25 00:54:00,63.5,61.0,30.09,South,185,0.0,6.0,90,0.00,,,0.00,weatherlink.com 1.10,2013-04-25 04:54:00,
2013-04-25 01:09:00,63.2,60.0,30.08,SW,219,3.0,7.0,90,0.00,,,0.00,weatherlink.com 1.10,2013-04-25 05:09:00,
2013-04-25 01:24:00,62.9,60.0,30.08,SSW,213,0.0,4.0,90,0.00,,,0.00,weatherlink.com 1.10,2013-04-25 05:24:00,
2013-04-25 01:39:00,62.6,60.0,30.07,SSW,204,5.0,6.0,90,0.00,,,0.00,weatherlink.com 1.10,2013-04-25 05:39:00,
2013-04-25 01:54:00,62.7,60.0,30.07,South,175,0.0,5.0,90,0.00,,,0.00,weatherlink.com 1.10,2013-04-25 05:54:00,
2013-04-25 02:09:00,62.9,60.0,30.07,SSW,207,2.0,7.0,90,0.00,,,0.00,weatherlink.com 1.10,2013-04-25 06:09:00,
2013-04-25 02:24:00,63.0,60.0,30.06,SSW,196,0.0,7.0,90,0.00,,,0.00,weatherlink.com 1.10,2013-04-25 06:24:00,
2013-04-25 02:39:00,63.0,60.0,30.06,SSW,196,1.0,7.0,90,0.00,,,0.00,weatherlink.com 1.10,2013-04-25 06:39:00,
2013-04-25 02:54:00,62.9,60.0,30.05,SSW,199,0.0,5.0,90,0.00,,,0.00,weatherlink.com 1.10,2013-04-25 06:54:00,
2013-04-25 03:09:00,62.7,60.0,30.05,WSW,241,0.0,3.0,90,0.00,,,0.00,weatherlink.com 1.10,2013-04-25 07:09:00,
2013-04-25 03:24:00,62.6,60.0,30.06,WSW,243,3.0,5.0,90,0.00,,,0.00,weatherlink.com 1.10,2013-04-25 07:24:00,
2013-04-25 03:39:00,62.5,60.0,30.07,South,189,0.0,7.0,90,0.00,,,0.00,weatherlink.com 1.10,2013-04-25 07:39:00,
2013-04-25 03:54:00,62.5,60.0,30.07,South,178,0.0,2.0,90,0.00,,,0.00,weatherlink.com 1.10,2013-04-25 07:54:00,
2013-04-25 04:09:00,62.3,59.0,30.07,South,188,2.0,4.0,90,0.00,,,0.00,weatherlink.com 1.10,2013-04-25 08:09:00,
2013-04-25 04:24:00,62.0,59.0,30.07,South,189,1.0,4.0,90,0.00,,,0.00,weatherlink.com 1.10,2013-04-25 08:24:00,
2013-04-25 04:39:00,61.9,59.0,30.07,South,190,0.0,2.0,90,0.00,,,0.00,weatherlink.com 1.10,2013-04-25 08:39:00,
2013-04-25 04:54:00,61.9,59.0,30.08,South,190,0.0,3.0,90,0.00,,,0.00,weatherlink.com 1.10,2013-04-25 08:54:00,
2013-04-25 05:09:00,62.0,59.0,30.08,South,190,0.0,2.0,90,0.00,,,0.00,weatherlink.com 1.10,2013-04-25 09:09:00,
2013-04-25 05:24:00,62.1,59.0,30.09,South,190,0.0,2.0,90,0.00,,,0.00,weatherlink.com 1.10,2013-04-25 09:24:00,
2013-04-25 05:39:00,62.2,59.0,30.09,SSW,194,0.0,4.0,90,0.00,,,0.00,weatherlink.com 1.10,2013-04-25 09:39:00,
2013-04-25 05:54:00,62.5,60.0,30.09,SW,223,0.0,5.0,90,0.00,,,0.00,weatherlink.com 1.10,2013-04-25 09:54:00,
2013-04-25 06:09:00,63.0,60.0,30.10,SW,230,2.0,4.0,90,0.00,,,0.00,weatherlink.com 1.10,2013-04-25 10:09:00,
2013-04-25 06:24:00,63.4,61.0,30.11,SW,232,2.0,3.0,90,0.00,,,0.00,weatherlink.com 1.10,2013-04-25 10:24:00,
2013-04-25 06:39:00,63.7,61.0,30.11,West,269,2.0,6.0,90,0.00,,,0.00,weatherlink.com 1.10,2013-04-25 10:39:00,
2013-04-25 06:54:00,63.8,61.0,30.11,West,269,1.0,5.0,90,0.00,,,0.00,weatherlink.com 1.10,2013-04-25 10:54:00,
2013-04-25 07:09:00,64.0,61.0,30.12,West,269,0.0,5.0,90,0.00,,,0.00,weatherlink.com 1.10,2013-04-25 11:09:00,
2013-04-25 07:24:00,64.0,61.0,30.13,West,269,1.0,3.0,90,0.00,,,0.00,weatherlink.com 1.10,2013-04-25 11:24:00,
2013-04-25 07:39:00,64.0,61.0,30.13,West,269,0.0,2.0,90,0.00,,,0.00,weatherlink.com 1.10,2013-04-25 11:39:00,
2013-04-25 07:54:00,64.1,61.0,30.13,West,269,2.0,3.0,90,0.00,,,0.00,weatherlink.com 1.10,2013-04-25 11:54:00,
2013-04-25 08:09:00,64.3,61.0,30.14,West,269,0.0,3.0,90,0.00,,,0.00,weatherlink.com 1.10,2013-04-25 12:09:00,
2013-04-25 08:24:00,64.7,62.0,30.15,NNE,13,0.0,2.0,90,0.00,,,0.00,weatherlink.com 1.10,2013-04-25 12:24:00,
2013-04-25 08:39:00,65.5,63.0,30.15,North,355,0.0,4.0,90,0.00,,,0.00,weatherlink.com 1.10,2013-04-25 12:39:00,
2013-04-25 08:54:00,65.9,63.0,30.15,NNW,330,1.0,5.0,89,0.00,,,0.00,weatherlink.com 1.10,2013-04-25 12:54:00,
2013-04-25 09:09:00,66.2,62.0,30.15,NNW,330,0.0,4.0,87,0.00,,,0.00,weatherlink.com 1.10,2013-04-25 13:09:00,
2013-04-25 09:24:00,66.3,62.0,30.16,NNW,338,0.0,4.0,86,0.00,,,0.00,weatherlink.com 1.10,2013-04-25 13:24:00,
2013-04-25 09:39:00,66.5,62.0,30.15,North,355,3.0,6.0,86,0.00,,,0.00,weatherlink.com 1.10,2013-04-25 13:39:00,
2013-04-25 09:54:00,67.0,62.0,30.16,North,355,2.0,6.0,85,0.00,,,0.00,weatherlink.com 1.10,2013-04-25 13:54:00,
2013-04-25 10:09:00,68.1,62.0,30.16,North,5,4.0,9.0,82,0.00,,,0.00,weatherlink.com 1.10,2013-04-25 14:09:00,
2013-04-25 10:24:00,67.6,62.0,30.16,North,5,7.0,12.0,81,0.00,,,0.00,weatherlink.com 1.10,2013-04-25 14:24:00,
2013-04-25 10:39:00,67.8,62.0,30.16,North,11,8.0,14.0,81,0.00,,,0.00,weatherlink.com 1.10,2013-04-25 14:39:00,
2013-04-25 10:54:00,67.8,61.0,30.16,North,5,3.0,17.0,79,0.00,,,0.00,weatherlink.com 1.10,2013-04-25 14:54:00,
2013-04-25 11:09:00,67.8,60.0,30.17,NNE,16,5.0,12.0,77,0.00,,,0.00,weatherlink.com 1.10,2013-04-25 15:09:00,
2013-04-25 11:24:00,68.6,60.0,30.16,NNE,20,7.0,11.0,75,0.00,,,0.00,weatherlink.com 1.10,2013-04-25 15:24:00,
2013-04-25 11:39:00,68.6,60.0,30.16,NNE,31,6.0,13.0,75,0.00,,,0.00,weatherlink.com 1.10,2013-04-25 15:39:00,
2013-04-25 11:54:00,69.0,60.0,30.17,NNE,13,9.0,11.0,73,0.00,,,0.00,weatherlink.com 1.10,2013-04-25 15:54:00,
2013-04-25 12:09:00,68.7,61.0,30.17,NNE,15,2.0,7.0,75,0.00,,,0.00,weatherlink.com 1.10,2013-04-25 16:09:00,
2013-04-25 12:24:00,68.8,61.0,30.18,NNE,18,1.0,8.0,75,0.00,,,0.00,weatherlink.com 1.10,2013-04-25 16:24:00,
2013-04-25 12:39:00,68.3,61.0,30.18,NNE,21,3.0,6.0,77,0.02,,,0.02,weatherlink.com 1.10,2013-04-25 16:39:00,
2013-04-25 12:54:00,66.7,61.0,30.18,NNE,21,0.0,2.0,83,0.04,,,0.04,weatherlink.com 1.10,2013-04-25 16:54:00,
2013-04-25 13:09:00,66.6,62.0,30.18,NNE,25,0.0,3.0,86,0.06,,,0.06,weatherlink.com 1.10,2013-04-25 17:09:00,
2013-04-25 13:24:00,66.7,63.0,30.17,East,90,5.0,7.0,87,0.06,,,0.06,weatherlink.com 1.10,2013-04-25 17:24:00,
2013-04-25 13:39:00,68.3,63.0,30.17,ESE,109,5.0,11.0,84,0.04,,,0.06,weatherlink.com 1.10,2013-04-25 17:39:00,
2013-04-25 13:54:00,67.6,62.0,30.17,ESE,110,13.0,14.0,81,0.02,,,0.06,weatherlink.com 1.10,2013-04-25 17:54:00,
2013-04-25 14:10:00,66.5,61.0,30.18,East,89,7.0,15.0,81,0.00,,,0.06,weatherlink.com 1.10,2013-04-25 18:10:00,
2013-04-25 14:24:00,66.1,59.0,30.18,SE,126,8.0,17.0,79,0.00,,,0.06,weatherlink.com 1.10,2013-04-25 18:24:00,
2013-04-25 14:39:00,65.7,60.0,30.18,ESE,113,3.0,13.0,81,0.00,,,0.06,weatherlink.com 1.10,2013-04-25 18:39:00,
2013-04-25 14:54:00,66.1,60.0,30.19,ESE,113,4.0,12.0,80,0.00,,,0.06,weatherlink.com 1.10,2013-04-25 18:54:00,
2013-04-25 15:09:00,65.1,60.0,30.19,ESE,111,9.0,12.0,82,0.00,,,0.06,weatherlink.com 1.10,2013-04-25 19:09:00,
2013-04-25 15:25:00,64.4,58.0,30.18,SSE,148,2.0,13.0,80,0.00,,,0.06,weatherlink.com 1.10,2013-04-25 19:25:00,
2013-04-25 15:40:00,64.4,58.0,30.19,East,98,6.0,14.0,79,0.00,,,0.06,weatherlink.com 1.10,2013-04-25 19:40:00,
2013-04-25 15:55:00,63.8,58.0,30.19,East,80,7.0,13.0,80,0.00,,,0.06,weatherlink.com 1.10,2013-04-25 19:55:00,
2013-04-25 16:10:00,63.2,57.0,30.18,ESE,111,5.0,13.0,81,0.00,,,0.06,weatherlink.com 1.10,2013-04-25 20:10:00,
2013-04-25 16:25:00,63.1,57.0,30.18,East,83,0.0,10.0,81,0.00,,,0.06,weatherlink.com 1.10,2013-04-25 20:25:00,
2013-04-25 16:40:00,62.0,57.0,30.18,SE,143,2.0,13.0,83,0.00,,,0.06,weatherlink.com 1.10,2013-04-25 20:40:00,
2013-04-25 16:55:00,61.4,56.0,30.18,East,96,3.0,13.0,83,0.00,,,0.06,weatherlink.com 1.10,2013-04-25 20:55:00,
2013-04-25 17:10:00,61.3,57.0,30.19,East,79,1.0,13.0,84,0.00,,,0.06,weatherlink.com 1.10,2013-04-25 21:10:00,
2013-04-25 17:25:00,61.3,57.0,30.19,East,95,3.0,14.0,84,0.00,,,0.06,weatherlink.com 1.10,2013-04-25 21:25:00,
2013-04-25 17:40:00,61.1,56.0,30.19,SSE,159,4.0,14.0,84,0.00,,,0.06,weatherlink.com 1.10,2013-04-25 21:40:00,
2013-04-25 17:55:00,60.9,56.0,30.20,SE,126,2.0,15.0,85,0.00,,,0.06,weatherlink.com 1.10,2013-04-25 21:55:00,
2013-04-25 18:09:00,61.0,56.0,30.20,East,81,3.0,14.0,84,0.00,,,0.06,weatherlink.com 1.10,2013-04-25 22:09:00,
2013-04-25 18:24:00,61.1,57.0,30.20,ESE,121,7.0,14.0,85,0.00,,,0.06,weatherlink.com 1.10,2013-04-25 22:24:00,
2013-04-25 18:39:00,60.9,56.0,30.20,SE,126,1.0,13.0,84,0.00,,,0.06,weatherlink.com 1.10,2013-04-25 22:39:00,
2013-04-25 18:54:00,60.5,56.0,30.20,SE,130,7.0,13.0,85,0.00,,,0.06,weatherlink.com 1.10,2013-04-25 22:54:00,
2013-04-25 19:09:00,60.1,55.0,30.19,East,81,7.0,14.0,84,0.00,,,0.06,weatherlink.com 1.10,2013-04-25 23:09:00,
2013-04-25 19:24:00,59.7,55.0,30.19,SE,129,10.0,14.0,84,0.00,,,0.06,weatherlink.com 1.10,2013-04-25 23:24:00,
2013-04-25 19:39:00,59.3,55.0,30.21,NE,49,8.0,13.0,84,0.00,,,0.06,weatherlink.com 1.10,2013-04-25 23:39:00,
2013-04-25 19:54:00,59.0,55.0,30.22,ENE,61,5.0,13.0,85,0.00,,,0.06,weatherlink.com 1.10,2013-04-25 23:54:00,
2013-04-25 20:09:00,58.9,54.0,30.22,NE,48,7.0,14.0,85,0.00,,,0.06,weatherlink.com 1.10,2013-04-26 00:09:00,
2013-04-25 20:24:00,59.0,54.0,30.23,ENE,70,1.0,10.0,84,0.00,,,0.06,weatherlink.com 1.10,2013-04-26 00:24:00,
2013-04-25 20:40:00,58.7,54.0,30.23,ENE,59,8.0,11.0,83,0.00,,,0.06,weatherlink.com 1.10,2013-04-26 00:40:00,
2013-04-25 20:55:00,58.6,54.0,30.24,ENE,61,0.0,10.0,85,0.00,,,0.06,weatherlink.com 1.10,2013-04-26 00:55:00,
2013-04-25 21:10:00,58.4,54.0,30.24,NNE,24,0.0,5.0,84,0.00,,,0.06,weatherlink.com 1.10,2013-04-26 01:10:00,
2013-04-25 21:25:00,58.2,53.0,30.25,NE,44,3.0,5.0,83,0.00,,,0.06,weatherlink.com 1.10,2013-04-26 01:25:00,
2013-04-25 21:40:00,57.8,53.0,30.25,NE,43,0.0,4.0,84,0.00,,,0.06,weatherlink.com 1.10,2013-04-26 01:40:00,
2013-04-25 21:55:00,57.6,53.0,30.25,NE,41,3.0,4.0,84,0.00,,,0.06,weatherlink.com 1.10,2013-04-26 01:55:00,
2013-04-25 22:10:00,57.4,52.0,30.26,NE,39,2.0,5.0,83,0.00,,,0.06,weatherlink.com 1.10,2013-04-26 02:10:00,
2013-04-25 22:25:00,57.2,52.0,30.26,NE,35,3.0,6.0,83,0.00,,,0.06,weatherlink.com 1.10,2013-04-26 02:25:00,
2013-04-25 22:40:00,56.9,52.0,30.27,NE,34,0.0,6.0,84,0.00,,,0.06,weatherlink.com 1.10,2013-04-26 02:40:00,
2013-04-25 22:55:00,56.5,52.0,30.27,NNE,33,1.0,6.0,84,0.00,,,0.06,weatherlink.com 1.10,2013-04-26 02:55:00,
2013-04-25 23:10:00,56.0,51.0,30.27,NNE,32,1.0,7.0,84,0.00,,,0.06,weatherlink.com 1.10,2013-04-26 03:10:00,
2013-04-25 23:25:00,55.7,51.0,30.27,NNE,30,5.0,9.0,84,0.00,,,0.06,weatherlink.com 1.10,2013-04-26 03:25:00,
2013-04-25 23:40:00,55.5,51.0,30.26,NNE,28,5.0,8.0,85,0.00,,,0.06,weatherlink.com 1.10,2013-04-26 03:40:00,
2013-04-25 23:55:00,55.3,51.0,30.26,NNE,25,6.0,10.0,84,0.00,,,0.06,weatherlink.com 1.10,2013-04-26 03:55:00,